Springfield, New Jersey
Current Conditions -  °F | °C
As of 12:55 AM on Friday 28 Nov 2014 (Local Time) from KLDJ Reporting Station
Clear Clear  
Wind Chill: 27°   Ceiling: Unl
Heat Index: 34°   Visibility: 10mi
Dew Point: 27°   Wind: 9mph
Humidity: 77%   Direction: 300°WNW
Pressure: 30.1"   Gusts: NA
Location:  40.71°N, 74.31°W
Report Text: KLDJ 280555Z AUTO 30008KT 10SM CLR 01/M03 A3010 RMK AO2 T00111026 10045 20011 400520011
Loading
Personal Weather Stations






























Interactive Weather Map New forecast layout! Learn more

10-Day Weather Forecast

Advertisements
Track Severe Weather on mobile